

Wyoming Mesonet
Water Resources Data System and State Climate Office
SEO WACNet, UW USACE UMRB, USDA-ARS, BLM
| Wind | Soil | |||||||||||||||||||
| Temp | Precip | Speed | Dir | Gust | Dir | Humidity | Pressure | Solar | Snow | Temperature (Deg F) | Moisture (%) | |||||||||
| Date Time (MST) | (F) | (in) | (mph) | (deg) | (mph) | (deg) | (%) | (Mbars) | (w/m^2) | (in) | 5cm | 10cm | 20cm | 50cm | 1m | 5cm | 10cm | 20cm | 50cm | 1m |
| 2026-08-30 00:00:00 | 55.15 | 0.00 | 3.79 | 107 | 6.34 | 96 | 79.6 | 881.0 | 0.0 | 0.1 | 69.80 | 74.30 | 75.38 | 72.68 | 69.08 | 10.9% | 21.8% | 23.6% | 24.8% | 29.9% |
| 2026-08-30 01:00:00 | 54.84 | 0.00 | 3.69 | 132 | 6.34 | 109 | 81.9 | 881.0 | 0.0 | 0.0 | 68.72 | 73.40 | 75.02 | 72.68 | 69.26 | 10.4% | 21.6% | 23.6% | 24.8% | 29.7% |
| 2026-08-30 02:00:00 | 53.01 | 0.00 | 2.55 | 120 | 6.96 | 127 | 88.2 | 881.0 | 0.0 | 0.1 | 67.64 | 72.68 | 74.66 | 72.68 | 69.26 | 10.8% | 21.5% | 23.6% | 24.8% | 29.8% |
| 2026-08-30 03:00:00 | 49.15 | 0.00 | 3.28 | 141 | 6.96 | 107 | 86.2 | 881.0 | 0.0 | 0.0 | 66.74 | 71.96 | 74.30 | 72.68 | 69.26 | 10.3% | 21.6% | 23.6% | 24.8% | 29.8% |
| 2026-08-30 04:00:00 | 53.02 | 0.00 | 5.06 | 124 | 9.94 | 92 | 86.3 | 881.0 | 0.0 | 0.1 | 66.20 | 71.24 | 73.94 | 72.68 | 69.26 | 10.1% | 21.4% | 23.6% | 24.7% | 29.7% |
| 2026-08-30 05:00:00 | 52.39 | 0.00 | 4.43 | 120 | 8.20 | 76 | 87.7 | 881.0 | 0.0 | 0.1 | 65.66 | 70.70 | 73.40 | 72.50 | 69.26 | 10.5% | 21.4% | 23.6% | 24.8% | 29.8% |
| 2026-08-30 06:00:00 | 54.12 | 0.00 | 1.01 | 114 | 8.82 | 104 | 86.1 | 881.0 | 20.0 | 0.2 | 65.30 | 70.34 | 73.04 | 72.68 | 69.26 | 10.0% | 21.3% | 23.5% | 24.7% | 29.8% |
| 2026-08-30 07:00:00 | 57.56 | 0.00 | 2.74 | 326 | 4.22 | 336 | 79.9 | 882.0 | 43.0 | 0.2 | 66.02 | 69.80 | 72.68 | 72.50 | 69.26 | 10.2% | 21.3% | 23.5% | 24.9% | 29.6% |
| 2026-08-30 08:00:00 | 65.32 | 0.00 | 0.09 | 159 | 4.22 | 277 | 58.1 | 881.0 | 217.4 | 0.0 | 66.56 | 69.80 | 72.32 | 72.50 | 69.26 | 10.4% | 21.3% | 23.5% | 24.8% | 29.8% |
| 2026-08-30 09:00:00 | 72.73 | 0.00 | 7.09 | 311 | 10.56 | 290 | 45.9 | 882.0 | 589.4 | 0.2 | 68.36 | 70.16 | 71.96 | 72.50 | 69.26 | 10.5% | 21.3% | 23.6% | 24.8% | 29.7% |
| 2026-08-30 10:00:00 | 74.17 | 0.00 | 4.34 | 316 | 14.16 | 348 | 39.0 | 881.0 | 342.7 | 0.2 | 71.96 | 71.60 | 71.96 | 72.50 | 69.26 | 11.3% | 21.4% | 23.5% | 24.7% | 29.7% |
| 2026-08-30 11:00:00 | 78.26 | 0.00 | 7.38 | 314 | 17.14 | 307 | 36.1 | 882.0 | 509.5 | 0.3 | 77.00 | 73.40 | 72.14 | 72.50 | 69.26 | 11.6% | 21.5% | 23.5% | 24.7% | 29.7% |
| 2026-08-30 12:00:00 | 65.77 | 0.00 | 34.69 | 309 | 42.12 | 305 | 49.6 | 883.0 | 119.7 | 0.0 | 79.34 | 75.56 | 72.50 | 72.32 | 69.26 | 12.2% | 21.6% | 23.6% | 24.7% | 29.6% |
| 2026-08-30 13:00:00 | 68.81 | 0.00 | 15.84 | 331 | 41.74 | 304 | 49.4 | 884.0 | 1006.0 | 0.2 | 77.54 | 76.46 | 73.04 | 72.32 | 69.26 | 11.9% | 21.7% | 23.6% | 24.6% | 29.6% |
| 2026-08-30 14:00:00 | 69.64 | 0.00 | 7.84 | 323 | 24.34 | 315 | 47.6 | 883.0 | 929.0 | 0.4 | 80.96 | 77.00 | 73.58 | 72.32 | 69.26 | 12.3% | 21.7% | 23.6% | 24.6% | 29.7% |
| 2026-08-30 15:00:00 | 72.32 | 0.00 | 3.68 | 225 | 12.67 | 335 | 41.8 | 882.0 | 677.3 | 0.2 | 83.30 | 77.90 | 74.12 | 72.32 | 69.08 | 12.5% | 21.9% | 23.6% | 24.6% | 29.7% |
| 2026-08-30 16:00:00 | 75.13 | 0.00 | 7.73 | 349 | 18.25 | 345 | 37.0 | 882.0 | 443.6 | 0.2 | 85.64 | 78.62 | 74.48 | 72.14 | 69.08 | 12.7% | 21.9% | 23.6% | 24.6% | 29.6% |
| 2026-08-30 17:00:00 | 73.00 | 0.00 | 10.12 | 348 | 15.90 | 1 | 35.8 | 883.0 | 261.1 | 0.1 | 85.10 | 79.16 | 75.02 | 72.14 | 69.26 | 12.6% | 21.9% | 23.7% | 24.6% | 29.6% |
| 2026-08-30 18:00:00 | 70.65 | 0.00 | 8.60 | 352 | 16.52 | 339 | 34.3 | 883.0 | 102.0 | 0.1 | 82.40 | 78.98 | 75.38 | 72.14 | 69.26 | 12.6% | 22.0% | 23.6% | 24.6% | 29.5% |
| 2026-08-30 19:00:00 | 65.95 | 0.00 | 7.72 | 352 | 11.55 | 353 | 40.8 | 883.0 | 0.0 | 0.0 | 78.62 | 78.26 | 75.74 | 71.96 | 69.08 | 12.3% | 21.9% | 23.6% | 24.7% | 29.5% |
| 2026-08-30 20:00:00 | 56.55 | 0.00 | 4.01 | 121 | 8.82 | 352 | 55.4 | 884.0 | 0.0 | -0.1 | 75.20 | 77.36 | 75.74 | 71.96 | 69.26 | 11.7% | 21.8% | 23.6% | 24.6% | 29.5% |
| 2026-08-30 21:00:00 | 55.35 | 0.00 | 7.88 | 128 | 10.81 | 136 | 58.2 | 884.0 | 0.0 | 0.1 | 72.32 | 75.92 | 75.56 | 71.96 | 69.26 | 11.3% | 21.7% | 23.7% | 24.6% | 29.5% |
| 2026-08-30 22:00:00 | 49.59 | 0.00 | 6.94 | 121 | 10.31 | 130 | 70.2 | 884.0 | 0.0 | 0.2 | 70.16 | 74.84 | 75.38 | 72.14 | 69.08 | 10.8% | 21.6% | 23.7% | 24.6% | 29.5% |
| 2026-08-30 23:00:00 | 47.61 | 0.00 | 5.72 | 114 | 8.94 | 109 | 74.4 | 884.0 | 0.0 | 0.2 | 68.36 | 73.58 | 75.02 | 72.14 | 69.08 | 10.6% | 21.6% | 23.6% | 24.6% | 29.5% |